Time;durP1;ratioP1;P1;durP2;ratioP2;P2;SDS_P1;SDS_P2;PMS_P1;PMS_P2;Temp;Humidity;BMP_temperature;BMP_pressure;BME280_temperature;BME280_humidity;BME280_pressure;Samples;Min_cycle;Max_cycle;Signal;HPM_P1;HPM_P2
2022/08/24 00:02:00;;;;;;;8.63;6.18;;;;;;;20.35;87.29;99187.22;4500777;31;34076;-83
2022/08/24 00:04:29;;;;;;;9.90;6.37;;;;;;;20.55;86.86;99184.34;4498741;31;34599;-83
2022/08/24 00:06:59;;;;;;;9.80;6.87;;;;;;;20.25;88.68;99184.19;4500942;31;35187;-83
2022/08/24 00:09:28;;;;;;;10.15;6.57;;;;;;;20.46;87.32;99187.47;4500136;31;34564;-83
2022/08/24 00:11:56;;;;;;;10.13;6.87;;;;;;;20.81;85.61;99195.31;4487550;31;34107;-83
2022/08/24 00:14:24;;;;;;;10.85;6.78;;;;;;;20.56;86.00;99194.00;4499561;31;34934;-83
2022/08/24 00:16:53;;;;;;;10.60;6.70;;;;;;;20.37;87.46;99195.91;4500606;31;34437;-84
2022/08/24 00:19:21;;;;;;;10.38;7.28;;;;;;;20.70;85.86;99197.69;4501011;31;33716;-83
2022/08/24 00:21:50;;;;;;;11.95;7.22;;;;;;;20.68;86.87;99194.28;4483671;31;33995;-83
2022/08/24 00:24:18;;;;;;;10.00;6.53;;;;;;;20.25;89.45;99185.03;4498316;31;34963;-83
2022/08/24 00:26:47;;;;;;;10.68;7.28;;;;;;;20.77;86.74;99186.69;4499240;31;35332;-83
2022/08/24 00:29:17;;;;;;;11.93;7.18;;;;;;;20.77;86.29;99188.47;4499481;31;34478;-83
2022/08/24 00:31:45;;;;;;;13.43;7.53;;;;;;;20.59;88.02;99190.31;4501581;31;34029;-83
2022/08/24 00:34:14;;;;;;;10.05;6.78;;;;;;;20.55;87.72;99191.44;4500562;31;35793;-83
2022/08/24 00:36:42;;;;;;;11.38;7.03;;;;;;;20.62;86.93;99190.19;4500939;31;35258;-82
2022/08/24 00:39:11;;;;;;;14.38;7.85;;;;;;;20.34;89.19;99190.78;4499747;31;33761;-83
2022/08/24 00:41:44;;;;;;;12.02;7.90;;;;;;;20.43;88.96;99179.72;4500090;31;33948;-83
2022/08/24 00:44:13;;;;;;;11.20;7.78;;;;;;;20.49;87.89;99179.38;4498984;31;35851;-83
2022/08/24 00:46:42;;;;;;;11.82;7.70;;;;;;;20.62;87.44;99180.44;4484600;32;34401;-83
2022/08/24 00:49:18;;;;;;;10.90;7.28;;;;;;;20.41;89.45;99186.88;4487109;31;33655;-83
2022/08/24 00:51:54;;;;;;;11.07;7.53;;;;;;;20.23;89.88;99189.56;4500337;31;34618;-83
2022/08/24 00:54:25;;;;;;;11.52;7.40;;;;;;;20.65;87.60;99190.03;4499878;31;34954;-83
2022/08/24 00:56:59;;;;;;;12.77;7.35;;;;;;;20.30;90.90;99189.25;4500336;31;35347;-83
2022/08/24 00:59:33;;;;;;;12.48;8.20;;;;;;;20.29;90.78;99185.72;4500149;31;33552;-83
2022/08/24 01:02:05;;;;;;;12.43;7.37;;;;;;;20.19;91.99;99193.31;4500188;31;33979;-83
2022/08/24 01:04:57;;;;;;;13.98;8.70;;;;;;;20.17;91.95;99178.44;4498935;31;34987;-83
2022/08/24 01:07:27;;;;;;;11.80;7.97;;;;;;;20.33;91.23;99171.44;4501200;31;34630;-83
2022/08/24 01:09:59;;;;;;;12.63;7.62;;;;;;;20.53;89.20;99167.69;4493941;31;33005;-83
2022/08/24 01:12:30;;;;;;;10.23;7.18;;;;;;;20.55;88.44;99162.31;4484318;32;34506;-83
2022/08/24 01:14:59;;;;;;;13.15;8.18;;;;;;;20.03;92.94;99168.59;4491562;31;35004;-83
2022/08/24 01:20:14;;;;;;;10.90;7.47;;;;;;;20.72;87.89;99169.34;4500667;31;33527;-83
2022/08/24 01:22:58;;;;;;;12.80;8.40;;;;;;;20.67;88.71;99166.12;4501119;31;33901;-83
2022/08/24 01:25:27;;;;;;;13.32;7.97;;;;;;;20.72;87.64;99178.16;4497503;31;35140;-83
2022/08/24 01:27:59;;;;;;;17.62;8.82;;;;;;;20.26;91.64;99184.13;4500326;31;34430;-83
2022/08/24 01:30:30;;;;;;;12.55;8.35;;;;;;;20.09;93.04;99176.22;4498521;31;34403;-84
2022/08/24 01:33:07;;;;;;;15.43;8.82;;;;;;;20.29;91.66;99176.94;4498456;31;33943;-83
2022/08/24 01:35:37;;;;;;;18.52;9.02;;;;;;;20.27;91.86;99195.53;4499926;31;36122;-83
2022/08/24 01:38:08;;;;;;;12.80;8.45;;;;;;;20.42;91.04;99191.25;4500178;31;34558;-83
2022/08/24 01:40:41;;;;;;;12.60;8.60;;;;;;;20.42;89.47;99194.72;4498514;31;34604;-83
2022/08/24 01:43:11;;;;;;;12.68;8.23;;;;;;;20.53;89.83;99190.66;4499518;31;34227;-83
2022/08/24 01:45:40;;;;;;;13.15;8.95;;;;;;;20.42;89.50;99194.72;4483609;31;34262;-82
2022/08/24 01:48:09;;;;;;;13.23;8.75;;;;;;;20.00;94.02;99201.34;4501061;31;34483;-86
2022/08/24 01:50:37;;;;;;;13.80;8.43;;;;;;;20.07;93.12;99196.59;4499412;31;33774;-82
2022/08/24 01:53:08;;;;;;;13.95;9.43;;;;;;;19.96;94.25;99199.81;4502207;31;33805;-83
2022/08/24 01:55:36;;;;;;;14.32;9.27;;;;;;;20.48;89.70;99197.97;4500854;31;34736;-82
2022/08/24 01:58:05;;;;;;;15.48;10.10;;;;;;;20.37;90.26;99196.75;4492503;31;35084;-82
2022/08/24 02:00:34;;;;;;;17.02;9.73;;;;;;;20.20;92.31;99200.28;4495947;31;33676;-82
2022/08/24 02:03:03;;;;;;;14.95;9.77;;;;;;;19.92;95.16;99194.75;4500266;31;34537;-82
2022/08/24 02:05:32;;;;;;;15.80;10.23;;;;;;;20.45;90.92;99204.28;4494926;31;34928;-82
2022/08/24 02:08:00;;;;;;;16.65;9.48;;;;;;;20.08;92.63;99195.66;4472883;32;34413;-83
2022/08/24 02:10:28;;;;;;;14.38;9.63;;;;;;;20.04;93.94;99202.03;4495040;31;33298;-83
2022/08/24 02:12:57;;;;;;;15.82;10.05;;;;;;;20.12;93.62;99205.16;4500611;31;34882;-82
2022/08/24 02:15:31;;;;;;;15.98;10.35;;;;;;;19.82;95.88;99204.94;4499960;31;35030;-82
2022/08/24 02:17:59;;;;;;;15.88;9.57;;;;;;;20.10;93.71;99208.78;4502935;31;34669;-82
2022/08/24 02:20:29;;;;;;;16.35;9.73;;;;;;;20.13;93.24;99209.47;4501993;31;33480;-83
2022/08/24 02:22:56;;;;;;;16.48;9.25;;;;;;;19.79;96.57;99208.59;4501757;31;34816;-83
2022/08/24 02:25:26;;;;;;;16.83;10.40;;;;;;;19.80;95.17;99205.03;4499751;31;35822;-82
2022/08/24 02:27:55;;;;;;;19.50;10.88;;;;;;;19.89;95.28;99208.97;4502583;31;35131;-83
2022/08/24 02:30:23;;;;;;;20.95;10.77;;;;;;;19.83;95.98;99207.47;4486241;31;32667;-83
2022/08/24 02:32:51;;;;;;;16.65;10.23;;;;;;;19.54;98.88;99208.09;4500976;31;33951;-85
2022/08/24 02:35:21;;;;;;;18.20;10.70;;;;;;;20.05;93.87;99206.41;4494459;31;35061;-83
2022/08/24 02:37:48;;;;;;;19.58;11.23;;;;;;;20.01;93.79;99207.47;4500139;31;35200;-81
2022/08/24 02:40:16;;;;;;;25.92;12.00;;;;;;;19.99;93.56;99206.69;4500226;31;33776;-86
2022/08/24 02:42:45;;;;;;;18.27;10.80;;;;;;;20.19;92.64;99197.72;4501504;31;33890;-84
2022/08/24 02:45:13;;;;;;;17.00;10.07;;;;;;;20.45;90.21;99193.69;4498932;31;35016;-83
2022/08/24 02:47:41;;;;;;;17.10;11.70;;;;;;;20.37;90.45;99209.16;4502440;31;35144;-87
2022/08/24 02:50:13;;;;;;;18.62;11.12;;;;;;;19.84;94.77;99209.19;4499748;31;34571;-83
2022/08/24 02:52:41;;;;;;;19.23;11.70;;;;;;;19.42;98.85;99207.75;4500032;31;33856;-85
2022/08/24 02:55:13;;;;;;;20.02;11.95;;;;;;;19.55;97.84;99213.28;4500007;31;35401;-83
2022/08/24 02:57:46;;;;;;;;;;;;;;;20.05;94.13;99211.69;4501837;31;34049;-84
2022/08/24 03:00:17;;;;;;;21.05;10.93;;;;;;;20.01;93.71;99210.13;4499838;31;33601;-84
2022/08/24 03:02:50;;;;;;;16.87;10.88;;;;;;;20.28;92.66;99213.12;4500122;31;34837;-83
2022/08/24 03:05:21;;;;;;;21.70;10.40;;;;;;;20.20;92.31;99210.03;4497447;31;35471;-83
2022/08/24 03:07:49;;;;;;;18.65;11.70;;;;;;;20.15;93.79;99210.25;4502402;31;34414;-83
2022/08/24 03:10:20;;;;;;;18.20;11.20;;;;;;;19.85;95.57;99210.06;4498509;31;34404;-81
2022/08/24 03:12:49;;;;;;;19.27;10.13;;;;;;;19.89;95.99;99203.69;4502175;31;34762;-80
2022/08/24 03:15:22;;;;;;;16.20;10.65;;;;;;;19.97;94.65;99200.66;4500128;31;34371;-83
2022/08/24 03:17:50;;;;;;;18.40;11.38;;;;;;;20.33;92.15;99199.63;4488013;31;34203;-82
2022/08/24 03:20:21;;;;;;;18.62;11.43;;;;;;;20.30;91.90;99200.66;4501539;31;33727;-82
2022/08/24 03:22:49;;;;;;;19.27;11.55;;;;;;;20.32;92.03;99203.25;4502496;31;33985;-82
2022/08/24 03:25:19;;;;;;;19.50;11.30;;;;;;;20.30;92.36;99203.31;4498895;31;35086;-83
2022/08/24 03:27:47;;;;;;;20.92;11.63;;;;;;;19.86;96.06;99207.34;4500928;31;33329;-81
2022/08/24 03:30:17;;;;;;;21.02;12.57;;;;;;;20.07;93.97;99204.53;4501560;31;34540;-82
2022/08/24 03:32:45;;;;;;;18.73;12.18;;;;;;;20.24;92.87;99200.97;4499531;31;34801;-81
2022/08/24 03:35:14;;;;;;;22.00;11.50;;;;;;;20.49;90.40;99195.25;4499812;31;36195;-82
2022/08/24 03:37:42;;;;;;;20.98;12.77;;;;;;;20.38;91.28;99197.59;4501122;31;35217;-81
2022/08/24 03:40:11;;;;;;;20.27;12.25;;;;;;;19.98;94.24;99210.31;4500424;31;34518;-80
2022/08/24 03:42:52;;;;;;;18.50;10.88;;;;;;;20.08;93.12;99206.22;4502253;31;34290;-81
2022/08/24 03:45:21;;;;;;;21.48;12.60;;;;;;;20.05;94.34;99209.88;4500216;31;34880;-80
2022/08/24 03:47:49;;;;;;;23.10;12.55;;;;;;;19.89;95.01;99204.53;4500893;31;34388;-82
2022/08/24 03:50:18;;;;;;;22.13;13.38;;;;;;;20.40;91.31;99195.72;4500373;31;34571;-80
2022/08/24 03:52:47;;;;;;;20.98;12.20;;;;;;;20.12;93.40;99198.97;4500712;31;34062;-80
2022/08/24 03:55:15;;;;;;;20.35;12.30;;;;;;;20.19;93.15;99205.66;4499142;31;35975;-79
2022/08/24 03:57:42;;;;;;;26.55;14.48;;;;;;;20.26;92.34;99194.69;4502033;31;35177;-80
2022/08/24 04:00:12;;;;;;;22.58;13.25;;;;;;;20.46;90.98;99204.19;4500222;31;34594;-79
2022/08/24 04:02:41;;;;;;;23.35;13.20;;;;;;;20.06;93.52;99208.09;4500698;31;33946;-79
2022/08/24 04:05:11;;;;;;;21.25;12.95;;;;;;;19.78;97.69;99208.66;4500375;31;35105;-79
2022/08/24 04:07:39;;;;;;;27.17;14.07;;;;;;;20.26;92.92;99217.66;4482147;31;35298;-79
2022/08/24 04:10:08;;;;;;;22.98;12.37;;;;;;;20.10;93.18;99206.16;4489394;31;33802;-81
2022/08/24 04:12:37;;;;;;;22.60;12.35;;;;;;;20.09;95.33;99202.66;4501673;31;33438;-78
2022/08/24 04:15:07;;;;;;;23.83;13.60;;;;;;;20.11;94.18;99210.50;4500819;31;35256;-80
2022/08/24 04:17:35;;;;;;;24.37;13.93;;;;;;;19.86;95.98;99206.50;4488178;31;34364;-80
2022/08/24 04:20:06;;;;;;;24.98;13.85;;;;;;;20.41;92.07;99213.31;4486161;32;34337;-80
2022/08/24 04:22:35;;;;;;;26.70;13.80;;;;;;;20.33;92.55;99212.88;4486046;32;33793;-80
2022/08/24 04:25:05;;;;;;;24.05;13.73;;;;;;;20.38;91.42;99208.19;4485780;32;35049;-78
2022/08/24 04:27:38;;;;;;;23.05;12.05;;;;;;;19.78;96.49;99203.38;4475731;31;33695;-78
2022/08/24 04:30:08;;;;;;;22.33;12.95;;;;;;;20.44;91.95;99203.44;4501657;31;33555;-79
2022/08/24 04:32:37;;;;;;;25.30;12.85;;;;;;;20.10;94.44;99204.38;4499693;31;33916;-79
2022/08/24 04:35:05;;;;;;;18.48;11.48;;;;;;;20.21;93.82;99202.00;4486075;32;34911;-79
2022/08/24 04:37:34;;;;;;;17.98;11.07;;;;;;;20.38;91.25;99208.19;4485654;32;34497;-78
2022/08/24 04:40:04;;;;;;;21.45;11.85;;;;;;;20.38;91.60;99208.19;4485847;32;35364;-78
2022/08/24 04:42:33;;;;;;;19.12;11.43;;;;;;;19.99;93.96;99209.34;4484613;32;33939;-78
2022/08/24 04:45:03;;;;;;;19.95;11.35;;;;;;;20.08;93.48;99206.22;4485676;32;35212;-86
2022/08/24 04:47:31;;;;;;;18.23;10.68;;;;;;;20.41;91.87;99198.28;4485589;32;35085;-78
2022/08/24 04:49:59;;;;;;;20.10;10.73;;;;;;;20.63;89.83;99200.69;4485942;31;33819;-80
2022/08/24 04:52:29;;;;;;;18.92;10.70;;;;;;;20.42;91.59;99200.03;4485937;32;33560;-82
2022/08/24 04:54:57;;;;;;;18.92;10.52;;;;;;;20.48;90.87;99201.47;4485494;32;34960;-81
2022/08/24 04:57:25;;;;;;;15.43;9.77;;;;;;;20.63;90.46;99202.50;4485554;32;34551;-82
2022/08/24 04:59:56;;;;;;;16.85;10.02;;;;;;;20.82;88.17;99200.53;4484643;32;33903;-81
2022/08/24 05:02:25;;;;;;;18.62;10.05;;;;;;;20.23;92.37;99216.00;4484611;32;34050;-83
2022/08/24 05:04:56;;;;;;;16.37;9.80;;;;;;;20.21;93.20;99220.53;4493388;31;35501;-81
2022/08/24 05:07:24;;;;;;;15.25;8.85;;;;;;;20.48;91.85;99211.22;4499418;31;35098;-84
2022/08/24 05:09:54;;;;;;;17.70;9.55;;;;;;;20.82;88.83;99207.59;4500166;31;34091;-81
2022/08/24 05:12:28;;;;;;;16.30;9.75;;;;;;;20.85;88.33;99206.59;4501243;31;33910;-83
2022/08/24 05:14:58;;;;;;;14.77;8.80;;;;;;;20.92;88.28;99203.50;4500021;31;35756;-81
2022/08/24 05:17:30;;;;;;;15.93;9.48;;;;;;;20.91;88.51;99201.81;4500318;31;34258;-81
2022/08/24 05:20:02;;;;;;;15.85;8.95;;;;;;;20.90;89.48;99200.09;4500020;31;33661;-78
2022/08/24 05:22:36;;;;;;;15.02;8.90;;;;;;;21.42;86.50;99204.22;4501392;31;33882;-79
2022/08/24 05:25:06;;;;;;;17.87;9.82;;;;;;;21.45;86.64;99205.88;4500249;31;35061;-80
2022/08/24 05:27:37;;;;;;;15.02;8.60;;;;;;;21.33;86.53;99208.25;4499738;31;34419;-81
2022/08/24 05:30:09;;;;;;;15.77;9.50;;;;;;;21.61;86.18;99211.16;4500192;31;33655;-81
2022/08/24 05:32:40;;;;;;;13.85;8.32;;;;;;;21.61;85.46;99212.00;4501011;31;33807;-81
2022/08/24 05:35:10;;;;;;;14.32;8.95;;;;;;;21.95;83.43;99210.00;4500862;31;35134;-81
2022/08/24 05:37:43;;;;;;;13.98;8.55;;;;;;;21.45;85.90;99213.81;4500099;31;34419;-80
2022/08/24 05:40:15;;;;;;;13.88;9.15;;;;;;;21.88;83.94;99213.97;4501075;31;34582;-77
2022/08/24 05:42:45;;;;;;;14.20;8.90;;;;;;;21.97;83.83;99221.38;4497830;31;34837;-76
2022/08/24 05:45:14;;;;;;;16.17;9.23;;;;;;;22.10;82.93;99214.38;4500416;31;35961;-77
2022/08/24 05:47:42;;;;;;;14.90;8.70;;;;;;;21.66;86.28;99214.41;4499391;31;35399;-76
2022/08/24 05:50:11;;;;;;;12.25;8.27;;;;;;;21.95;83.70;99212.66;4498632;31;34015;-77
2022/08/24 05:52:39;;;;;;;12.37;7.60;;;;;;;21.74;83.80;99213.00;4499330;31;33788;-76
2022/08/24 05:55:07;;;;;;;11.75;7.93;;;;;;;22.34;80.49;99209.44;4499450;31;34679;-76
2022/08/24 05:57:36;;;;;;;10.70;7.35;;;;;;;22.07;84.49;99217.22;4497899;31;34568;-76
2022/08/24 06:00:10;;;;;;;12.80;7.60;;;;;;;23.12;77.73;99208.13;4485156;32;33744;-76
2022/08/24 06:02:42;;;;;;;10.23;7.28;;;;;;;22.88;80.37;99216.69;4497088;31;33947;-77
2022/08/24 06:05:11;;;;;;;11.82;8.07;;;;;;;23.05;80.77;99217.47;4500782;31;35837;-76
2022/08/24 06:07:39;;;;;;;12.23;7.87;;;;;;;22.94;80.93;99212.78;4499469;31;35354;-77
2022/08/24 06:10:08;;;;;;;11.50;7.00;;;;;;;23.30;76.28;99210.56;4486315;31;33000;-77
2022/08/24 06:12:56;;;;;;;10.57;6.75;;;;;;;23.78;74.14;99208.22;4496835;31;33798;-76
2022/08/24 06:15:24;;;;;;;10.93;6.93;;;;;;;23.33;76.23;99208.53;4488917;31;35108;-76
2022/08/24 06:17:52;;;;;;;9.27;6.45;;;;;;;23.72;75.91;99211.28;4497422;31;34499;-76
2022/08/24 06:20:21;;;;;;;11.10;6.53;;;;;;;23.86;74.31;99197.97;4500652;31;33721;-76
2022/08/24 06:22:49;;;;;;;10.00;6.53;;;;;;;24.61;70.51;99213.19;4499447;31;34852;-76
2022/08/24 06:28:04;;;;;;;10.35;7.25;;;;;;;24.61;70.39;99218.53;4497896;31;33661;-76
2022/08/24 06:30:33;;;;;;;10.77;6.40;;;;;;;25.46;66.41;99215.94;4499448;31;33670;-76
2022/08/24 06:33:01;;;;;;;9.27;6.15;;;;;;;25.38;67.08;99225.47;4498736;31;33951;-76
2022/08/24 06:35:31;;;;;;;10.80;6.43;;;;;;;24.95;68.23;99226.75;4500347;31;35112;-76
2022/08/24 06:37:59;;;;;;;11.02;6.53;;;;;;;25.15;68.16;99223.50;4499519;31;33956;-76
2022/08/24 06:40:27;;;;;;;8.35;5.55;;;;;;;25.78;65.38;99223.31;4501368;31;34609;-76
2022/08/24 06:42:55;;;;;;;9.55;5.95;;;;;;;25.37;66.94;99229.09;4501405;31;33452;-76
2022/08/24 06:45:28;;;;;;;8.93;6.05;;;;;;;25.87;64.90;99235.12;4500563;31;35892;-76
2022/08/24 06:47:56;;;;;;;9.07;5.50;;;;;;;26.28;63.03;99226.63;4499768;31;35345;-76
2022/08/24 06:50:24;;;;;;;12.02;5.70;;;;;;;26.67;61.70;99237.84;4502373;31;33897;-76
2022/08/24 06:52:52;;;;;;;9.88;5.57;;;;;;;25.81;65.54;99233.78;4501889;31;34707;-76
2022/08/24 06:55:20;;;;;;;8.43;5.35;;;;;;;26.25;64.00;99226.03;4502190;31;35155;-76
2022/08/24 06:57:48;;;;;;;9.18;5.12;;;;;;;26.23;64.46;99226.16;4501713;31;34594;-76
2022/08/24 07:00:20;;;;;;;10.63;6.37;;;;;;;26.54;63.25;99231.75;4502417;31;32775;-76
2022/08/24 07:02:49;;;;;;;11.32;5.87;;;;;;;25.84;65.03;99227.38;4500086;31;34702;-76
2022/08/24 07:05:17;;;;;;;7.97;5.22;;;;;;;26.63;62.79;99238.22;4502445;31;35900;-76
2022/08/24 07:07:47;;;;;;;9.02;5.22;;;;;;;27.36;59.91;99235.97;4501714;31;34408;-76
2022/08/24 07:10:15;;;;;;;11.05;5.93;;;;;;;26.81;61.46;99235.91;4501117;31;33774;-76
2022/08/24 07:12:49;;;;;;;9.73;5.62;;;;;;;26.97;60.27;99239.06;4498293;31;32538;-76
2022/08/24 07:15:18;;;;;;;9.20;6.47;;;;;;;26.63;61.19;99244.41;4487896;31;34306;-76
2022/08/24 07:17:46;;;;;;;10.13;5.53;;;;;;;26.64;61.31;99253.28;4495107;31;34541;-76
2022/08/24 07:20:16;;;;;;;13.27;5.75;;;;;;;25.83;64.06;99260.34;4486701;32;33677;-76
2022/08/24 07:22:46;;;;;;;8.25;6.03;;;;;;;26.24;62.88;99259.88;4498113;31;34031;-76
2022/08/24 07:25:14;;;;;;;8.75;6.07;;;;;;;25.99;63.84;99265.38;4502192;31;34946;-76
2022/08/24 07:27:42;;;;;;;10.40;6.35;;;;;;;25.86;64.70;99266.28;4501547;31;34595;-76
2022/08/24 07:30:11;;;;;;;9.90;6.47;;;;;;;25.82;65.18;99266.63;4500923;31;34540;-76
2022/08/24 07:32:57;;;;;;;10.32;6.37;;;;;;;25.73;66.07;99262.81;4501550;31;33897;-76
2022/08/24 07:35:28;;;;;;;9.85;6.00;;;;;;;26.07;66.15;99271.00;4501999;31;35894;-76
2022/08/24 07:37:58;;;;;;;10.50;6.43;;;;;;;27.16;62.78;99274.97;4499639;31;34516;-76
2022/08/24 07:40:27;;;;;;;11.80;5.75;;;;;;;26.98;61.33;99275.47;4488408;31;33594;-76
2022/08/24 07:42:57;;;;;;;8.45;5.10;;;;;;;27.17;61.42;99276.69;4501479;31;33932;-76
2022/08/24 07:45:27;;;;;;;8.75;5.53;;;;;;;27.07;61.29;99279.22;4487957;31;33651;-76
2022/08/24 07:47:55;;;;;;;6.12;4.07;;;;;;;26.87;63.28;99275.50;4500000;31;33729;-76
2022/08/24 07:50:24;;;;;;;6.78;5.20;;;;;;;27.57;55.68;99284.16;4499477;31;33311;-77
2022/08/24 07:52:52;;;;;;;11.43;4.85;;;;;;;27.92;57.29;99291.09;4499252;31;33201;-76
2022/08/24 07:55:20;;;;;;;8.13;4.60;;;;;;;28.35;56.36;99284.78;4502078;31;35883;-76
2022/08/24 07:57:49;;;;;;;6.53;4.32;;;;;;;28.68;56.04;99285.56;4501168;31;34416;-76
2022/08/24 08:00:21;;;;;;;7.18;4.50;;;;;;;30.15;51.92;99276.84;4501876;31;33874;-76
2022/08/24 08:02:49;;;;;;;7.60;4.72;;;;;;;29.80;52.78;99283.63;4499477;31;33698;-76
2022/08/24 08:05:21;;;;;;;7.45;4.70;;;;;;;29.85;53.21;99280.53;4501251;31;35130;-76
2022/08/24 08:07:51;;;;;;;7.22;4.30;;;;;;;30.10;52.37;99289.84;4501066;31;34389;-76
2022/08/24 08:10:22;;;;;;;8.13;4.15;;;;;;;29.83;51.57;99287.88;4487717;31;33659;-76
2022/08/24 08:12:50;;;;;;;4.03;2.95;;;;;;;30.64;49.17;99282.13;4499477;31;34719;-76
2022/08/24 08:15:18;;;;;;;5.20;3.03;;;;;;;30.76;46.92;99286.34;4501192;31;36017;-76
2022/08/24 08:17:47;;;;;;;4.80;2.67;;;;;;;29.45;50.99;99294.88;4499852;31;35296;-76
2022/08/24 08:20:23;;;;;;;4.32;2.95;;;;;;;30.04;48.12;99295.78;4501810;31;34550;-76
2022/08/24 08:25:39;;;;;;;8.65;3.00;;;;;;;30.22;46.79;99294.06;4502131;31;34980;-76
2022/08/24 08:28:13;;;;;;;6.00;3.37;;;;;;;31.45;44.98;99292.22;4499555;31;34568;-76
2022/08/24 08:30:53;;;;;;;6.18;3.20;;;;;;;30.68;46.72;99290.75;4501259;31;33882;-76
2022/08/24 08:33:23;;;;;;;7.60;3.15;;;;;;;30.74;46.84;99291.00;4499788;31;33843;-76
2022/08/24 08:36:13;;;;;;;5.55;3.03;;;;;;;30.53;47.21;99295.72;4501887;31;35498;-76
2022/08/24 08:38:43;;;;;;;5.97;3.53;;;;;;;30.21;47.53;99294.22;4485475;31;34584;-75
2022/08/24 08:41:30;;;;;;;4.82;3.10;;;;;;;29.94;47.08;99303.84;4501888;31;34347;-76
2022/08/24 08:44:03;;;;;;;5.00;3.03;;;;;;;29.62;48.10;99296.88;4495224;31;34007;-76
2022/08/24 08:46:50;;;;;;;5.20;3.10;;;;;;;29.85;47.64;99308.22;4499647;31;35125;-76
2022/08/24 08:49:44;;;;;;;4.10;2.60;;;;;;;29.04;50.24;99316.31;4501638;31;34490;-76
2022/08/24 08:52:29;;;;;;;6.70;3.53;;;;;;;28.98;49.87;99313.31;4499237;31;33646;-76
2022/08/24 08:55:16;;;;;;;6.00;3.37;;;;;;;28.82;50.44;99312.00;4499201;31;33918;-76
2022/08/24 08:58:02;;;;;;;4.47;3.03;;;;;;;28.57;50.05;99315.09;4500937;31;34940;-76
2022/08/24 09:01:02;;;;;;;6.30;3.78;;;;;;;29.30;50.88;99305.16;4486727;31;34399;-76
2022/08/24 09:03:53;;;;;;;8.70;3.80;;;;;;;29.85;49.01;99308.22;4500939;31;33534;-76
2022/08/24 09:06:34;;;;;;;4.55;2.70;;;;;;;29.01;51.12;99307.69;4501295;31;34778;-76
2022/08/24 09:09:44;;;;;;;6.82;3.30;;;;;;;29.11;48.92;99308.59;4487685;31;35192;-76
2022/08/24 09:12:49;;;;;;;7.25;3.05;;;;;;;28.37;52.35;99320.31;4479404;31;35266;-76
2022/08/24 09:15:30;;;;;;;5.62;3.58;;;;;;;29.32;52.23;99315.75;4484127;32;33797;-77
2022/08/24 09:18:21;;;;;;;7.12;3.08;;;;;;;28.97;50.86;99311.66;4485463;32;33941;-75
2022/08/24 09:20:59;;;;;;;7.45;3.25;;;;;;;29.04;51.65;99318.16;4484248;32;34331;-76
2022/08/24 09:23:33;;;;;;;7.10;4.00;;;;;;;29.09;51.70;99318.59;4485693;31;35410;-76
2022/08/24 09:26:26;;;;;;;5.68;3.45;;;;;;;29.35;51.12;99312.78;4490233;31;33744;-76
2022/08/24 09:29:08;;;;;;;3.95;2.78;;;;;;;29.62;48.00;99302.25;4500434;31;34518;-76
2022/08/24 09:31:47;;;;;;;7.32;3.50;;;;;;;30.18;46.26;99310.62;4499310;31;35017;-75
2022/08/24 09:34:27;;;;;;;8.90;3.05;;;;;;;29.42;48.52;99301.38;4491754;31;35271;-76
2022/08/24 09:37:23;;;;;;;8.07;3.97;;;;;;;30.72;45.20;99301.03;4486061;31;33176;-76
2022/08/24 09:40:00;;;;;;;5.07;3.10;;;;;;;30.39;47.22;99303.28;4501271;31;34085;-76
2022/08/24 09:43:11;;;;;;;7.00;3.70;;;;;;;30.58;47.41;99293.44;4499443;31;35956;-77
2022/08/24 09:46:22;;;;;;;8.85;3.45;;;;;;;30.51;47.85;99300.41;4483911;32;34482;-76
2022/08/24 09:48:55;;;;;;;11.85;5.35;;;;;;;29.86;48.24;99298.31;4477437;32;33629;-76
2022/08/24 09:52:22;;;;;;;8.50;3.67;;;;;;;29.23;48.58;99294.13;4485112;32;34087;-76
2022/08/24 09:55:10;;;;;;;6.72;3.45;;;;;;;29.83;50.42;99287.88;4432372;31;34999;-76
2022/08/24 09:57:51;;;;;;;4.82;3.10;;;;;;;28.93;51.93;99279.75;4466040;31;34648;-77
2022/08/24 10:01:21;;;;;;;5.22;3.47;;;;;;;28.67;49.32;99284.69;4499626;31;34357;-76
2022/08/24 10:04:27;;;;;;;5.43;2.83;;;;;;;30.31;46.35;99278.91;4434932;32;33749;-76
2022/08/24 10:07:07;;;;;;;7.43;3.22;;;;;;;29.77;45.74;99272.34;4434025;32;35824;-76
2022/08/24 10:10:08;;;;;;;10.25;2.70;;;;;;;30.57;46.44;99275.66;4495120;31;35195;-77
2022/08/24 10:13:03;;;;;;;5.75;2.40;;;;;;;30.34;45.23;99278.69;4490058;31;34527;-76
2022/08/24 10:15:45;;;;;;;7.62;3.15;;;;;;;30.68;44.47;99267.38;4500620;31;33794;-77
2022/08/24 10:18:37;;;;;;;12.70;2.83;;;;;;;29.83;45.55;99269.09;4501865;31;35017;-76
2022/08/24 10:21:33;;;;;;;7.87;2.78;;;;;;;30.08;46.28;99277.56;4501581;31;34448;-76
2022/08/24 10:24:04;;;;;;;7.00;3.53;;;;;;;30.38;45.50;99261.25;4501902;31;34367;-76
2022/08/24 10:26:54;;;;;;;6.97;2.53;;;;;;;30.34;45.05;99269.75;4502624;31;33972;-76
2022/08/24 10:29:31;;;;;;;4.90;2.80;;;;;;;30.88;43.35;99273.53;4487310;31;35959;-76
2022/08/24 10:32:37;;;;;;;5.28;3.05;;;;;;;29.42;46.88;99282.59;4501442;31;34540;-75
2022/08/24 10:35:09;;;;;;;7.40;3.15;;;;;;;30.65;44.40;99278.44;4502261;31;33682;-76
2022/08/24 10:39:39;;;;;;;6.28;4.05;;;;;;;29.93;46.21;99278.00;4486636;32;34827;-76
2022/08/24 10:41:24;;;;;;;10.30;3.90;;;;;;;29.48;46.47;99289.22;4485484;32;35189;-76
2022/08/24 10:44:30;;;;;;;8.43;4.75;;;;;;;29.38;45.80;99289.19;4486546;32;35205;-75
2022/08/24 10:47:00;;;;;;;8.45;4.70;;;;;;;28.95;53.03;99290.34;4492438;31;34467;-75
2022/08/24 10:49:47;;;;;;;12.50;5.12;;;;;;;29.99;49.16;99287.31;4499357;31;34011;-76
2022/08/24 10:52:37;;;;;;;9.98;5.22;;;;;;;29.45;51.47;99289.50;4499176;31;34364;-75
2022/08/24 10:55:18;;;;;;;7.97;4.40;;;;;;;28.49;53.19;99284.44;4502381;31;34498;-75
2022/08/24 10:58:10;;;;;;;9.30;4.80;;;;;;;29.21;51.01;99282.69;4496577;31;33680;-76
2022/08/24 11:00:39;;;;;;;7.40;4.03;;;;;;;28.84;54.12;99285.91;4485443;31;33846;-76
2022/08/24 11:03:18;;;;;;;9.40;3.92;;;;;;;29.03;52.46;99278.91;4501372;31;35812;-76
2022/08/24 11:05:56;;;;;;;5.72;3.70;;;;;;;29.68;49.62;99290.09;4501192;31;34485;-76
2022/08/24 11:08:27;;;;;;;7.40;4.43;;;;;;;28.78;52.09;99285.59;4492739;31;33689;-76
2022/08/24 11:11:13;;;;;;;5.90;4.22;;;;;;;29.36;51.03;99291.19;4486845;32;33735;-76
2022/08/24 11:13:59;;;;;;;;;;;;;;;28.90;52.75;99285.37;4497231;31;35031;-76
2022/08/24 11:16:37;;;;;;;7.40;4.65;;;;;;;27.99;55.62;99284.28;4501153;31;34821;-76
2022/08/24 11:19:12;;;;;;;7.43;4.90;;;;;;;28.64;54.94;99287.63;4495584;31;34478;-76
2022/08/24 11:21:50;;;;;;;8.75;5.32;;;;;;;29.22;52.80;99281.69;4502561;31;34020;-76
2022/08/24 11:24:39;;;;;;;12.18;6.97;;;;;;;29.24;54.56;99278.88;4501229;31;35751;-76
2022/08/24 11:27:18;;;;;;;10.35;5.40;;;;;;;28.81;58.25;99286.19;4501636;31;34578;-75
2022/08/24 11:29:53;;;;;;;10.77;6.30;;;;;;;28.98;56.48;99283.84;4498263;31;34150;-76
2022/08/24 11:32:46;;;;;;;11.10;6.80;;;;;;;28.54;59.79;99284.94;4487341;31;34040;-76
2022/08/24 11:35:32;;;;;;;8.57;6.05;;;;;;;28.99;57.91;99298.94;4501343;31;35861;-76
2022/08/24 11:38:16;;;;;;;11.40;5.72;;;;;;;28.40;58.16;99292.44;4493832;31;35364;-76
2022/08/24 11:41:27;;;;;;;12.48;6.32;;;;;;;28.46;58.77;99303.44;4476590;32;32245;-77
2022/08/24 11:44:08;;;;;;;10.65;6.60;;;;;;;28.31;58.92;99300.28;4494564;31;33769;-76
2022/08/24 11:46:45;;;;;;;9.68;6.75;;;;;;;27.52;62.38;99297.91;4500697;31;35060;-76
2022/08/24 11:49:45;;;;;;;10.95;7.37;;;;;;;27.26;62.18;99294.63;4499347;31;34642;-76
2022/08/24 11:52:21;;;;;;;10.10;7.00;;;;;;;26.95;63.69;99294.44;4500482;31;33769;-76
2022/08/24 11:55:24;;;;;;;11.43;7.43;;;;;;;26.42;65.93;99283.44;4484755;32;33736;-76
2022/08/24 11:57:58;;;;;;;12.15;7.37;;;;;;;26.01;67.85;99293.63;4499669;31;36184;-76
2022/08/24 12:00:38;;;;;;;17.73;7.68;;;;;;;26.37;67.22;99304.31;4501916;31;35253;-76
2022/08/24 12:03:29;;;;;;;12.40;7.10;;;;;;;26.23;68.84;99311.56;4499222;31;33566;-76
2022/08/24 12:06:13;;;;;;;23.42;6.32;;;;;;;25.23;73.75;99318.03;4494870;31;33446;-77
2022/08/24 12:09:01;;;;;;;7.70;3.30;;;;;;;25.28;74.39;99337.25;4484220;31;34953;-75
2022/08/24 12:11:49;;;;;;;10.27;2.40;;;;;;;20.82;100.00;99361.09;4499304;31;34575;-74